createdAt,value
2022-09-15T00:01:18.996Z,19.80
2022-09-15T00:02:51.048Z,11.70
2022-09-15T00:04:22.770Z,17.10
2022-09-15T00:05:54.542Z,15.43
2022-09-15T00:07:26.347Z,19.60
2022-09-15T00:08:59.219Z,14.53
2022-09-15T00:10:30.934Z,20.20
2022-09-15T00:12:02.772Z,14.00
2022-09-15T00:13:36.090Z,16.50
2022-09-15T00:15:08.278Z,18.10
2022-09-15T00:16:40.439Z,15.03
2022-09-15T00:18:12.230Z,14.90
2022-09-15T00:19:43.878Z,19.60
2022-09-15T00:21:19.114Z,13.90
2022-09-15T00:22:50.827Z,14.37
2022-09-15T00:24:22.509Z,20.13
2022-09-15T00:25:54.223Z,17.30
2022-09-15T00:27:25.862Z,21.37
2022-09-15T00:28:58.762Z,14.60
2022-09-15T00:30:30.448Z,17.50
2022-09-15T00:32:02.442Z,14.17
2022-09-15T00:33:34.801Z,16.53
2022-09-15T00:35:06.822Z,17.53
2022-09-15T00:36:38.516Z,20.37
2022-09-15T00:38:11.966Z,23.53
2022-09-15T00:39:43.697Z,16.27
2022-09-15T00:41:18.526Z,20.13
2022-09-15T00:42:50.187Z,17.17
2022-09-15T00:44:21.845Z,20.70
2022-09-15T00:45:53.576Z,15.67
2022-09-15T00:47:38.086Z,16.27
2022-09-15T00:49:14.273Z,20.43
2022-09-15T00:50:51.694Z,18.67
2022-09-15T00:52:47.127Z,17.77
2022-09-15T00:54:52.894Z,12.93
2022-09-15T00:56:25.567Z,16.07
2022-09-15T00:58:11.806Z,16.07
2022-09-15T00:59:44.359Z,14.37
2022-09-15T01:01:16.799Z,13.03
2022-09-15T01:02:50.322Z,16.37
2022-09-15T01:04:22.158Z,15.90
2022-09-15T01:06:00.834Z,15.17
2022-09-15T01:07:39.022Z,15.43
2022-09-15T01:09:25.260Z,13.87
2022-09-15T01:10:57.483Z,14.37
2022-09-15T01:12:29.158Z,15.17
2022-09-15T01:14:01.782Z,14.90
2022-09-15T01:15:39.214Z,14.03
2022-09-15T01:17:37.747Z,11.53
2022-09-15T01:19:41.523Z,14.57
2022-09-15T01:21:19.274Z,14.20
2022-09-15T01:22:53.700Z,13.53
2022-09-15T01:24:43.411Z,17.23
2022-09-15T01:26:44.390Z,17.00
2022-09-15T01:28:50.659Z,19.40
2022-09-15T01:30:25.847Z,18.60
2022-09-15T01:32:21.691Z,21.20
2022-09-15T01:34:07.677Z,17.53
2022-09-15T01:35:42.103Z,19.50
2022-09-15T01:37:18.600Z,13.60
2022-09-15T01:39:16.076Z,18.33
2022-09-15T01:40:54.095Z,16.77
2022-09-15T01:42:27.048Z,17.43
2022-09-15T01:43:58.728Z,19.70
2022-09-15T01:45:33.853Z,17.13
2022-09-15T01:47:11.812Z,18.17
2022-09-15T01:48:44.021Z,21.23
2022-09-15T01:50:20.742Z,15.07
2022-09-15T01:51:54.095Z,19.47
2022-09-15T01:53:26.940Z,22.47
2022-09-15T01:55:03.505Z,18.50
2022-09-15T01:56:37.488Z,19.10
2022-09-15T01:58:09.346Z,19.77
2022-09-15T01:59:40.987Z,15.83
2022-09-15T02:01:32.962Z,27.03
2022-09-15T02:03:18.461Z,20.57
2022-09-15T02:04:54.973Z,16.33
2022-09-15T02:06:49.958Z,13.60
2022-09-15T02:08:47.514Z,16.23
2022-09-15T02:10:26.012Z,18.33
2022-09-15T02:12:12.314Z,18.17
2022-09-15T02:14:20.729Z,17.37
2022-09-15T02:15:59.448Z,16.13
2022-09-15T02:17:35.290Z,16.83
2022-09-15T02:19:34.125Z,16.77
2022-09-15T02:21:12.588Z,12.97
2022-09-15T02:22:49.594Z,15.57
2022-09-15T02:24:28.736Z,16.93
2022-09-15T02:26:07.669Z,15.47
2022-09-15T02:27:47.361Z,19.50
2022-09-15T02:29:21.073Z,16.77
2022-09-15T02:30:55.857Z,15.90
2022-09-15T02:32:30.629Z,19.27
2022-09-15T02:34:16.110Z,18.00
2022-09-15T02:35:47.911Z,18.33
2022-09-15T02:37:21.798Z,21.33
2022-09-15T02:39:00.499Z,20.37
2022-09-15T02:40:32.716Z,19.43
2022-09-15T02:42:04.787Z,18.80
2022-09-15T02:43:48.209Z,14.97
2022-09-15T02:45:20.227Z,19.73
2022-09-15T02:46:52.284Z,19.73
2022-09-15T02:48:25.197Z,15.50
2022-09-15T02:49:57.049Z,17.47
2022-09-15T02:51:29.320Z,13.90
2022-09-15T02:53:01.012Z,20.37
2022-09-15T02:54:32.682Z,15.40
2022-09-15T02:56:06.460Z,20.40
2022-09-15T02:57:38.391Z,16.33
2022-09-15T02:59:10.063Z,14.10
2022-09-15T03:00:41.773Z,17.50
2022-09-15T03:02:13.911Z,17.20
2022-09-15T03:03:46.738Z,15.77
2022-09-15T03:05:21.767Z,19.07
2022-09-15T03:06:53.415Z,18.70
2022-09-15T03:08:25.052Z,14.73
2022-09-15T03:09:56.671Z,18.27
2022-09-15T03:11:29.902Z,16.57
2022-09-15T03:13:01.728Z,17.27
2022-09-15T03:14:34.007Z,16.03
2022-09-15T03:16:10.392Z,19.63
2022-09-15T03:17:44.343Z,19.03
2022-09-15T03:19:15.951Z,18.63
2022-09-15T03:20:47.612Z,19.30
2022-09-15T03:22:19.286Z,20.13
2022-09-15T03:23:51.080Z,17.80
2022-09-15T03:25:23.440Z,15.50
2022-09-15T03:26:55.036Z,15.93
2022-09-15T03:28:27.812Z,16.47
2022-09-15T03:29:59.655Z,25.00
2022-09-15T03:31:31.342Z,20.13
2022-09-15T03:33:03.056Z,19.63
2022-09-15T03:34:34.716Z,18.10
2022-09-15T03:36:06.884Z,17.63
2022-09-15T03:37:38.690Z,20.77
2022-09-15T03:39:12.447Z,21.00
2022-09-15T03:40:44.383Z,15.50
2022-09-15T03:42:16.846Z,18.00
2022-09-15T03:43:48.420Z,16.93
2022-09-15T03:45:20.152Z,18.37
2022-09-15T03:46:51.820Z,15.67
2022-09-15T03:48:24.260Z,18.70
2022-09-15T03:49:55.909Z,21.37
2022-09-15T03:51:27.618Z,21.33
2022-09-15T03:53:00.556Z,16.60
2022-09-15T03:54:32.236Z,13.50
2022-09-15T03:56:31.127Z,15.43
2022-09-15T03:58:02.828Z,12.80
2022-09-15T03:59:34.461Z,15.30
2022-09-15T04:01:06.295Z,14.70
2022-09-15T04:02:38.005Z,18.73
2022-09-15T04:04:10.476Z,16.63
2022-09-15T04:05:42.122Z,19.90
2022-09-15T04:07:13.894Z,15.00
2022-09-15T04:08:45.659Z,15.83
2022-09-15T04:10:17.422Z,15.20
2022-09-15T04:11:49.042Z,18.27
2022-09-15T04:13:25.502Z,15.07
2022-09-15T04:14:59.797Z,13.20
2022-09-15T04:16:31.614Z,22.20
2022-09-15T04:18:04.816Z,14.97
2022-09-15T04:19:36.857Z,14.87
2022-09-15T04:21:12.961Z,15.87
2022-09-15T04:22:45.022Z,16.80
2022-09-15T04:24:17.085Z,17.67
2022-09-15T04:25:56.842Z,13.90
2022-09-15T04:27:28.935Z,12.43
2022-09-15T04:29:04.636Z,16.30
2022-09-15T04:30:36.970Z,16.30
2022-09-15T04:32:09.165Z,14.73
2022-09-15T04:33:42.045Z,18.50
2022-09-15T04:35:13.680Z,15.67
2022-09-15T04:36:46.480Z,19.07
2022-09-15T04:38:18.117Z,19.57
2022-09-15T04:39:49.836Z,13.73
2022-09-15T04:41:21.552Z,15.67
2022-09-15T04:42:53.763Z,13.10
2022-09-15T04:44:25.378Z,17.90
2022-09-15T04:45:57.472Z,16.90
2022-09-15T04:47:29.096Z,18.07
2022-09-15T04:49:00.706Z,18.40
2022-09-15T04:50:32.433Z,17.73
2022-09-15T04:52:09.832Z,18.30
2022-09-15T04:53:42.271Z,19.33
2022-09-15T04:55:13.999Z,17.23
2022-09-15T04:56:45.642Z,18.17
2022-09-15T04:58:17.315Z,16.20
2022-09-15T04:59:49.020Z,14.80
2022-09-15T05:01:22.799Z,16.50
2022-09-15T05:02:54.609Z,23.17
2022-09-15T05:04:26.266Z,16.90
2022-09-15T05:05:57.914Z,20.60
2022-09-15T05:07:29.522Z,22.80
2022-09-15T05:09:02.920Z,14.70
2022-09-15T05:10:38.057Z,17.53
2022-09-15T05:12:09.658Z,20.47
2022-09-15T05:13:41.499Z,20.33
2022-09-15T05:15:13.133Z,17.30
2022-09-15T05:16:44.748Z,16.80
2022-09-15T05:18:16.396Z,19.43
2022-09-15T05:19:48.099Z,17.43
2022-09-15T05:21:21.519Z,21.93
2022-09-15T05:22:53.122Z,17.57
2022-09-15T05:24:24.839Z,17.63
2022-09-15T05:26:01.184Z,19.57
2022-09-15T05:27:33.744Z,20.70
2022-09-15T05:29:05.427Z,17.30
2022-09-15T05:30:43.587Z,21.03
2022-09-15T05:32:16.059Z,15.90
2022-09-15T05:33:48.883Z,21.23
2022-09-15T05:35:20.528Z,15.43
2022-09-15T05:36:52.168Z,18.07
2022-09-15T05:38:25.151Z,16.27
2022-09-15T05:39:59.379Z,20.93
2022-09-15T05:41:31.127Z,26.30
2022-09-15T05:43:02.770Z,18.90
2022-09-15T05:44:34.847Z,17.43
2022-09-15T05:46:07.571Z,24.67
2022-09-15T05:47:39.284Z,21.90
2022-09-15T05:49:11.610Z,22.33
2022-09-15T05:50:49.632Z,17.50
2022-09-15T05:52:21.684Z,19.60
2022-09-15T05:53:53.373Z,18.70
2022-09-15T05:55:25.025Z,19.17
2022-09-15T05:56:56.669Z,21.50
2022-09-15T05:58:29.025Z,23.67
2022-09-15T06:00:00.910Z,28.87
2022-09-15T06:01:33.933Z,18.13
2022-09-15T06:03:05.600Z,19.70
2022-09-15T06:04:37.308Z,23.90
2022-09-15T06:06:09.224Z,22.57
2022-09-15T06:07:41.152Z,27.53
2022-09-15T06:09:12.824Z,28.67
2022-09-15T06:10:44.486Z,31.93
2022-09-15T06:12:17.860Z,36.23
2022-09-15T06:13:50.176Z,27.33
2022-09-15T06:15:22.747Z,32.93
2022-09-15T06:16:54.372Z,26.10
2022-09-15T06:18:26.028Z,24.70
2022-09-15T06:19:58.024Z,21.80
2022-09-15T06:21:31.619Z,28.10
2022-09-15T06:23:03.283Z,23.60
2022-09-15T06:24:35.225Z,19.70
2022-09-15T06:26:09.374Z,18.00
2022-09-15T06:27:41.864Z,23.50
2022-09-15T06:29:13.557Z,23.60
2022-09-15T06:30:49.277Z,21.07
2022-09-15T06:32:20.906Z,25.07
2022-09-15T06:33:55.793Z,25.73
2022-09-15T06:35:27.400Z,17.60
2022-09-15T06:36:59.698Z,20.80
2022-09-15T06:38:31.318Z,25.47
2022-09-15T06:40:04.766Z,25.10
2022-09-15T06:42:00.704Z,19.97
2022-09-15T06:43:33.992Z,20.43
2022-09-15T06:45:05.913Z,22.70
2022-09-15T06:46:37.710Z,20.10
2022-09-15T06:48:23.829Z,20.63
2022-09-15T06:49:56.365Z,19.37
2022-09-15T06:51:31.231Z,26.57
2022-09-15T06:53:02.874Z,22.37
2022-09-15T06:54:34.633Z,23.70
2022-09-15T06:56:08.225Z,26.43
2022-09-15T06:57:39.909Z,21.60
2022-09-15T06:59:12.601Z,26.47
2022-09-15T07:00:44.493Z,22.17
2022-09-15T07:02:16.226Z,28.87
2022-09-15T07:03:48.877Z,18.43
2022-09-15T07:05:20.676Z,22.90
2022-09-15T07:06:52.322Z,26.90
2022-09-15T07:08:23.972Z,21.20
2022-09-15T07:09:55.628Z,24.33
2022-09-15T07:11:27.296Z,19.33
2022-09-15T07:13:01.148Z,21.20
2022-09-15T07:14:32.769Z,21.03
2022-09-15T07:16:07.106Z,19.07
2022-09-15T07:17:38.816Z,19.90
2022-09-15T07:19:10.531Z,21.37
2022-09-15T07:20:42.312Z,21.80
2022-09-15T07:22:13.983Z,22.17
2022-09-15T07:23:46.561Z,21.83
2022-09-15T07:25:18.212Z,21.30
2022-09-15T07:26:49.868Z,23.30
2022-09-15T07:28:21.537Z,28.03
2022-09-15T07:29:53.161Z,22.03
2022-09-15T07:31:27.884Z,22.90
2022-09-15T07:32:59.504Z,17.97
2022-09-15T07:34:31.220Z,20.00
2022-09-15T07:36:07.826Z,17.93
2022-09-15T07:37:39.526Z,21.83
2022-09-15T07:39:11.133Z,18.77
2022-09-15T07:40:45.936Z,21.20
2022-09-15T07:42:17.637Z,19.90
2022-09-15T07:43:51.126Z,21.60
2022-09-15T07:45:22.876Z,18.03
2022-09-15T07:46:54.496Z,24.90
2022-09-15T07:48:26.704Z,22.33
2022-09-15T07:49:58.387Z,25.93
2022-09-15T07:51:30.316Z,21.73
2022-09-15T07:53:02.063Z,19.67
2022-09-15T07:54:33.741Z,22.33
2022-09-15T07:56:05.729Z,17.77
2022-09-15T07:57:37.505Z,18.40
2022-09-15T07:59:09.257Z,20.67
2022-09-15T08:00:40.965Z,17.90
2022-09-15T08:02:17.628Z,20.80
2022-09-15T08:03:51.025Z,22.03
2022-09-15T08:05:27.918Z,15.63
2022-09-15T08:06:59.565Z,17.77
2022-09-15T08:08:31.218Z,19.43
2022-09-15T08:10:04.969Z,19.67
2022-09-15T08:11:36.575Z,17.33
2022-09-15T08:13:08.376Z,16.80
2022-09-15T08:14:40.047Z,16.70
2022-09-15T08:16:14.735Z,20.73
2022-09-15T08:17:46.551Z,14.23
2022-09-15T08:19:18.316Z,20.57
2022-09-15T08:20:50.006Z,16.77
2022-09-15T08:22:21.735Z,21.53
2022-09-15T08:23:55.859Z,16.20
2022-09-15T08:25:27.638Z,18.00
2022-09-15T08:26:59.252Z,19.07
2022-09-15T08:28:30.864Z,16.43
2022-09-15T08:30:02.550Z,19.17
2022-09-15T08:31:34.192Z,14.47
2022-09-15T08:33:05.916Z,19.47
2022-09-15T08:34:37.638Z,18.60
2022-09-15T08:36:13.185Z,18.67
2022-09-15T08:37:45.382Z,20.33
2022-09-15T08:39:17.391Z,17.50
2022-09-15T08:40:49.131Z,14.23
2022-09-15T08:42:23.987Z,15.77
2022-09-15T08:44:08.647Z,20.83
2022-09-15T08:46:00.739Z,17.63
2022-09-15T08:47:37.827Z,14.77
2022-09-15T08:49:51.622Z,14.57
2022-09-15T08:51:32.035Z,13.70
2022-09-15T08:53:16.931Z,20.70
2022-09-15T08:54:52.706Z,20.13
2022-09-15T08:56:24.458Z,17.63
2022-09-15T08:57:56.122Z,16.10
2022-09-15T08:59:33.812Z,17.07
2022-09-15T09:01:53.132Z,19.53
2022-09-15T09:04:02.406Z,22.40
2022-09-15T09:05:46.030Z,20.10
2022-09-15T09:07:28.928Z,28.50
2022-09-15T09:09:04.995Z,19.90
2022-09-15T09:10:45.524Z,21.60
2022-09-15T09:12:37.028Z,23.87
2022-09-15T09:14:47.163Z,18.30
2022-09-15T09:16:42.295Z,16.33
2022-09-15T09:18:37.200Z,14.97
2022-09-15T09:20:21.993Z,18.87
2022-09-15T09:22:03.968Z,20.93
2022-09-15T09:23:55.284Z,11.93
2022-09-15T09:25:28.182Z,15.70
2022-09-15T09:27:00.244Z,20.00
2022-09-15T09:28:37.849Z,19.20
2022-09-15T09:30:12.493Z,16.90
2022-09-15T09:31:50.633Z,17.47
2022-09-15T09:33:34.561Z,18.03
2022-09-15T09:35:30.341Z,17.77
2022-09-15T09:37:11.413Z,12.90
2022-09-15T09:38:45.397Z,13.17
2022-09-15T09:40:17.355Z,12.77
2022-09-15T09:41:49.399Z,11.20
2022-09-15T09:43:21.149Z,14.00
2022-09-15T09:44:53.106Z,10.17
2022-09-15T09:46:24.798Z,11.97
2022-09-15T09:48:03.176Z,9.30
2022-09-15T09:49:53.841Z,15.50
2022-09-15T09:51:39.771Z,11.13
2022-09-15T09:53:32.062Z,7.27
2022-09-15T09:55:20.646Z,8.67
2022-09-15T09:56:53.593Z,12.07
2022-09-15T09:58:26.034Z,8.50
2022-09-15T09:59:58.133Z,8.67
2022-09-15T10:01:30.463Z,15.63
2022-09-15T10:03:16.206Z,15.60
2022-09-15T10:04:50.353Z,13.53
2022-09-15T10:06:22.818Z,8.80
2022-09-15T10:08:02.360Z,14.23
2022-09-15T10:09:34.193Z,8.17
2022-09-15T10:11:08.451Z,12.33
2022-09-15T10:12:41.777Z,9.80
2022-09-15T10:14:33.165Z,11.90
2022-09-15T10:16:06.518Z,8.10
2022-09-15T10:17:38.119Z,13.40
2022-09-15T10:19:13.971Z,11.10
2022-09-15T10:20:51.048Z,9.07
2022-09-15T10:22:35.677Z,11.90
2022-09-15T10:24:33.514Z,12.40
2022-09-15T10:26:34.122Z,17.43
2022-09-15T10:28:08.876Z,7.43
2022-09-15T10:29:40.582Z,6.40
2022-09-15T10:31:25.360Z,9.03
2022-09-15T10:33:19.912Z,6.60
2022-09-15T10:35:18.495Z,9.47
2022-09-15T10:36:51.240Z,8.67
2022-09-15T10:38:42.882Z,10.23
2022-09-15T10:40:52.985Z,10.33
2022-09-15T10:42:41.111Z,5.00
2022-09-15T10:44:35.746Z,11.13
2022-09-15T10:46:27.605Z,10.93
2022-09-15T10:47:59.239Z,9.17
2022-09-15T10:49:54.542Z,4.67
2022-09-15T10:52:12.170Z,4.77
2022-09-15T10:54:14.602Z,8.73
2022-09-15T10:56:27.187Z,8.07
2022-09-15T10:58:17.287Z,4.53
2022-09-15T11:00:09.746Z,4.83
2022-09-15T11:02:10.744Z,6.97
2022-09-15T11:03:51.190Z,3.90
2022-09-15T11:05:48.802Z,4.17
2022-09-15T11:07:48.285Z,3.87
2022-09-15T11:09:26.915Z,10.40
2022-09-15T11:11:04.716Z,6.83
2022-09-15T11:12:42.407Z,7.50
2022-09-15T11:14:43.795Z,12.50
2022-09-15T11:16:57.606Z,7.93
2022-09-15T11:18:54.476Z,5.70
2022-09-15T11:20:43.840Z,11.53
2022-09-15T11:22:29.887Z,4.40
2022-09-15T11:24:07.410Z,5.60
2022-09-15T11:25:45.040Z,5.30
2022-09-15T11:27:22.154Z,12.67
2022-09-15T11:29:05.495Z,3.60
2022-09-15T11:30:47.539Z,7.00
2022-09-15T11:32:29.649Z,4.10
2022-09-15T11:34:15.284Z,8.17
2022-09-15T11:35:56.632Z,10.10
2022-09-15T11:37:42.784Z,6.27
2022-09-15T11:39:20.384Z,8.03
2022-09-15T11:40:59.284Z,6.40
2022-09-15T11:42:55.527Z,5.47
2022-09-15T11:44:36.294Z,4.47
2022-09-15T11:46:16.252Z,9.17
2022-09-15T11:47:52.619Z,6.83
2022-09-15T11:49:31.628Z,7.73
2022-09-15T11:51:05.084Z,6.03
2022-09-15T11:52:57.175Z,7.40
2022-09-15T11:54:42.986Z,4.00
2022-09-15T11:56:33.252Z,5.43
2022-09-15T11:58:15.515Z,5.50
2022-09-15T11:59:58.384Z,7.23
2022-09-15T12:01:43.727Z,5.17
2022-09-15T12:03:25.168Z,15.13
2022-09-15T12:05:31.938Z,3.37
2022-09-15T12:07:14.424Z,8.03
2022-09-15T12:09:00.755Z,7.83
2022-09-15T12:10:43.333Z,10.13
2022-09-15T12:12:20.325Z,9.17
2022-09-15T12:13:53.631Z,12.43
2022-09-15T12:15:28.429Z,8.20
2022-09-15T12:17:01.350Z,6.97
2022-09-15T12:19:14.442Z,14.53
2022-09-15T12:21:05.681Z,11.13
2022-09-15T12:22:42.597Z,10.27
2022-09-15T12:24:38.498Z,10.20
2022-09-15T12:26:20.771Z,15.20
2022-09-15T12:28:21.740Z,5.07
2022-09-15T12:30:00.809Z,7.63
2022-09-15T12:31:35.453Z,6.73
2022-09-15T12:33:42.204Z,8.20
2022-09-15T12:35:19.641Z,6.97
2022-09-15T12:37:12.114Z,5.53
2022-09-15T12:38:48.187Z,6.90
2022-09-15T12:40:37.471Z,10.20
2022-09-15T12:42:12.053Z,6.10
2022-09-15T12:43:52.966Z,9.63
2022-09-15T12:45:28.614Z,12.00
2022-09-15T12:47:01.613Z,6.80
2022-09-15T12:48:35.626Z,12.70
2022-09-15T12:50:16.050Z,13.43
2022-09-15T12:51:49.776Z,8.77
2022-09-15T12:53:29.261Z,5.80
2022-09-15T12:55:02.899Z,6.57
2022-09-15T12:56:35.140Z,5.07
2022-09-15T12:58:18.342Z,4.43
2022-09-15T12:59:50.016Z,6.90
2022-09-15T13:01:24.722Z,12.90
2022-09-15T13:02:57.064Z,7.83
2022-09-15T13:04:54.892Z,5.80
2022-09-15T13:06:34.341Z,3.53
2022-09-15T13:08:15.289Z,5.47
2022-09-15T13:09:59.829Z,5.13
2022-09-15T13:11:36.690Z,5.53
2022-09-15T13:13:16.286Z,7.17
2022-09-15T13:14:49.970Z,7.17
2022-09-15T13:16:30.753Z,3.47
2022-09-15T13:18:05.529Z,5.23
2022-09-15T13:19:41.586Z,3.10
2022-09-15T13:21:17.451Z,2.70
2022-09-15T13:22:52.801Z,9.00
2022-09-15T13:24:57.652Z,3.80
2022-09-15T13:26:34.366Z,6.47
2022-09-15T13:28:09.432Z,5.07
2022-09-15T13:29:50.639Z,6.47
2022-09-15T13:31:38.803Z,5.80
2022-09-15T13:36:19.706Z,4.83
2022-09-15T13:38:24.895Z,3.67
2022-09-15T13:40:27.225Z,3.43
2022-09-15T13:42:04.786Z,4.23
2022-09-15T13:43:54.535Z,5.27
2022-09-15T13:46:05.583Z,3.17
2022-09-15T13:47:54.059Z,7.37
2022-09-15T13:49:28.754Z,3.10
2022-09-15T13:51:05.813Z,2.63
2022-09-15T13:52:54.505Z,9.43
2022-09-15T13:54:26.196Z,4.67
2022-09-15T13:56:04.348Z,5.10
2022-09-15T13:59:34.660Z,3.00
2022-09-15T14:01:07.621Z,2.20
2022-09-15T14:02:44.823Z,4.77
2022-09-15T14:04:22.944Z,1.77
2022-09-15T14:05:56.172Z,6.57
2022-09-15T14:07:27.843Z,10.57
2022-09-15T14:09:23.293Z,4.10
2022-09-15T14:10:58.194Z,7.03
2022-09-15T14:12:29.922Z,5.47
2022-09-15T14:14:02.866Z,7.90
2022-09-15T14:15:34.823Z,2.80
2022-09-15T14:17:28.553Z,2.90
2022-09-15T14:19:01.488Z,4.27
2022-09-15T14:20:33.406Z,13.13
2022-09-15T14:22:25.949Z,7.20
2022-09-15T14:24:02.500Z,4.17
2022-09-15T14:25:34.949Z,7.97
2022-09-15T14:27:09.635Z,4.40
2022-09-15T14:28:41.966Z,11.27
2022-09-15T14:30:21.460Z,7.73
2022-09-15T14:31:54.112Z,5.67
2022-09-15T14:33:34.323Z,9.20
2022-09-15T14:35:19.734Z,2.67
2022-09-15T14:37:13.249Z,6.90
2022-09-15T14:39:02.524Z,4.73
2022-09-15T14:40:39.345Z,4.37
2022-09-15T14:42:23.993Z,4.47
2022-09-15T14:43:56.035Z,10.80
2022-09-15T14:47:31.724Z,2.73
2022-09-15T14:49:14.027Z,13.77
2022-09-15T14:50:54.149Z,6.70
2022-09-15T14:52:30.640Z,4.20
2022-09-15T14:54:03.215Z,7.70
2022-09-15T14:55:50.163Z,1.90
2022-09-15T14:57:28.797Z,8.00
2022-09-15T14:59:11.220Z,9.60
2022-09-15T15:01:23.432Z,4.97
2022-09-15T15:03:39.469Z,5.13
2022-09-15T15:05:18.617Z,3.47
2022-09-15T15:07:25.052Z,5.93
2022-09-15T15:09:21.263Z,9.17
2022-09-15T15:10:53.782Z,7.27
2022-09-15T15:12:36.765Z,6.43
2022-09-15T15:14:11.301Z,4.60
2022-09-15T15:15:44.250Z,4.90
2022-09-15T15:17:32.043Z,5.43
2022-09-15T15:19:04.214Z,15.87
2022-09-15T15:20:35.895Z,4.57
2022-09-15T15:22:11.715Z,7.63
2022-09-15T15:23:47.010Z,5.13
2022-09-15T15:25:23.947Z,11.07
2022-09-15T15:26:55.562Z,9.10
2022-09-15T15:28:35.718Z,7.87
2022-09-15T15:30:30.639Z,6.30
2022-09-15T15:32:16.246Z,9.30
2022-09-15T15:34:00.102Z,9.70
2022-09-15T15:35:33.914Z,10.20
2022-09-15T15:37:17.038Z,5.00
2022-09-15T15:38:59.210Z,5.70
2022-09-15T15:40:32.269Z,9.63
2022-09-15T15:42:08.397Z,4.63
2022-09-15T15:43:40.038Z,7.80
2022-09-15T15:45:25.059Z,8.83
2022-09-15T15:47:01.619Z,5.27
2022-09-15T15:48:37.946Z,10.87
2022-09-15T15:50:25.286Z,6.73
2022-09-15T15:52:01.562Z,5.73
2022-09-15T15:53:34.120Z,6.20
2022-09-15T15:55:06.371Z,6.33
2022-09-15T15:56:38.230Z,3.40
2022-09-15T15:58:12.359Z,5.90
2022-09-15T15:59:45.018Z,11.23
2022-09-15T16:01:16.969Z,12.40
2022-09-15T16:02:50.063Z,2.50
2022-09-15T16:04:21.715Z,8.40
2022-09-15T16:05:57.551Z,14.93
2022-09-15T16:07:33.451Z,2.73
2022-09-15T16:09:05.959Z,3.40
2022-09-15T16:10:43.943Z,7.60
2022-09-15T16:12:16.460Z,5.07
2022-09-15T16:13:48.258Z,6.20
2022-09-15T16:15:21.368Z,3.40
2022-09-15T16:16:53.825Z,4.20
2022-09-15T16:18:26.085Z,3.53
2022-09-15T16:19:57.931Z,1.90
2022-09-15T16:21:42.970Z,5.23
2022-09-15T16:23:17.493Z,5.73
2022-09-15T16:24:49.307Z,5.63
2022-09-15T16:26:23.924Z,5.13
2022-09-15T16:27:55.709Z,4.37
2022-09-15T16:29:35.892Z,3.63
2022-09-15T16:31:11.939Z,6.83
2022-09-15T16:32:43.618Z,3.83
2022-09-15T16:34:19.587Z,6.07
2022-09-15T16:36:09.000Z,6.27
2022-09-15T16:37:40.600Z,12.37
2022-09-15T16:39:12.291Z,3.00
2022-09-15T16:40:43.977Z,8.73
2022-09-15T16:42:15.618Z,2.70
2022-09-15T16:43:47.540Z,5.47
2022-09-15T16:45:24.775Z,3.70
2022-09-15T16:46:56.455Z,9.03
2022-09-15T16:48:28.124Z,4.17
2022-09-15T16:49:59.965Z,2.37
2022-09-15T16:51:31.915Z,3.90
2022-09-15T16:53:04.100Z,4.30
2022-09-15T16:54:35.729Z,3.53
2022-09-15T16:56:10.703Z,3.90
2022-09-15T16:57:42.425Z,4.53
2022-09-15T16:59:14.436Z,2.77
2022-09-15T17:00:49.333Z,9.20
2022-09-15T17:02:22.277Z,5.67
2022-09-15T17:03:54.107Z,4.40
2022-09-15T17:05:28.834Z,5.50
2022-09-15T17:07:00.504Z,10.43
2022-09-15T17:08:32.976Z,4.43
2022-09-15T17:10:05.081Z,2.23
2022-09-15T17:11:36.760Z,2.23
2022-09-15T17:13:09.004Z,4.50
2022-09-15T17:14:40.629Z,3.23
2022-09-15T17:16:19.363Z,3.07
2022-09-15T17:17:51.427Z,1.50
2022-09-15T17:19:23.340Z,2.63
2022-09-15T17:20:54.988Z,2.23
2022-09-15T17:22:27.030Z,1.93
2022-09-15T17:23:58.738Z,5.17
2022-09-15T17:25:38.578Z,3.53
2022-09-15T17:27:10.270Z,3.17
2022-09-15T17:28:42.185Z,6.87
2022-09-15T17:30:14.402Z,3.07
2022-09-15T17:31:48.819Z,5.43
2022-09-15T17:33:20.941Z,2.10
2022-09-15T17:34:52.660Z,3.13
2022-09-15T17:36:24.366Z,4.50
2022-09-15T17:37:56.038Z,4.20
2022-09-15T17:39:27.726Z,5.80
2022-09-15T17:41:00.007Z,5.13
2022-09-15T17:42:31.717Z,8.20
2022-09-15T17:44:06.576Z,9.00
2022-09-15T17:45:38.289Z,5.50
2022-09-15T17:47:09.930Z,4.80
2022-09-15T17:48:44.050Z,3.93
2022-09-15T17:50:18.108Z,9.67
2022-09-15T17:51:49.896Z,3.03
2022-09-15T17:53:26.460Z,5.40
2022-09-15T17:54:58.134Z,7.17
2022-09-15T17:56:29.774Z,16.63
2022-09-15T17:58:02.398Z,3.13
2022-09-15T17:59:34.607Z,6.00
2022-09-15T18:01:06.419Z,3.90
2022-09-15T18:02:39.925Z,2.63
2022-09-15T18:04:11.606Z,6.57
2022-09-15T18:05:43.295Z,5.80
2022-09-15T18:07:14.896Z,2.60
2022-09-15T18:08:46.619Z,8.43
2022-09-15T18:10:18.454Z,3.63
2022-09-15T18:11:50.160Z,10.03
2022-09-15T18:13:24.160Z,4.30
2022-09-15T18:14:55.794Z,7.40
2022-09-15T18:16:27.469Z,6.80
2022-09-15T18:18:03.791Z,3.77
2022-09-15T18:19:35.392Z,5.23
2022-09-15T18:21:21.552Z,4.07
2022-09-15T18:22:54.160Z,6.83
2022-09-15T18:24:25.884Z,2.40
2022-09-15T18:25:57.903Z,5.70
2022-09-15T18:27:29.542Z,1.93
2022-09-15T18:29:02.000Z,5.80
2022-09-15T18:30:38.292Z,8.63
2022-09-15T18:32:09.936Z,7.17
2022-09-15T18:33:41.599Z,7.10
2022-09-15T18:35:18.382Z,4.97
2022-09-15T18:36:50.309Z,5.50
2022-09-15T18:38:22.907Z,7.33
2022-09-15T18:39:54.555Z,11.90
2022-09-15T18:41:27.660Z,3.80
2022-09-15T18:42:59.467Z,9.63
2022-09-15T18:44:31.128Z,5.90
2022-09-15T18:46:02.852Z,13.20
2022-09-15T18:47:34.555Z,5.20
2022-09-15T18:49:09.234Z,3.73
2022-09-15T18:50:41.846Z,4.37
2022-09-15T18:52:13.635Z,11.30
2022-09-15T18:53:45.263Z,6.90
2022-09-15T18:55:20.282Z,3.90
2022-09-15T18:56:52.011Z,4.77
2022-09-15T18:58:24.007Z,5.23
2022-09-15T18:59:55.635Z,3.03
2022-09-15T19:01:27.819Z,2.97
2022-09-15T19:03:01.509Z,6.23
2022-09-15T19:04:37.238Z,8.23
2022-09-15T19:06:12.195Z,4.20
2022-09-15T19:07:44.889Z,4.73
2022-09-15T19:09:16.555Z,2.57
2022-09-15T19:10:57.003Z,10.33
2022-09-15T19:12:28.735Z,4.73
2022-09-15T19:14:00.463Z,4.30
2022-09-15T19:15:34.254Z,5.53
2022-09-15T19:17:06.013Z,5.23
2022-09-15T19:18:38.019Z,5.57
2022-09-15T19:20:12.454Z,5.70
2022-09-15T19:21:44.088Z,7.40
2022-09-15T19:23:15.884Z,4.10
2022-09-15T19:24:47.581Z,5.97
2022-09-15T19:26:19.248Z,4.80
2022-09-15T19:27:51.005Z,8.53
2022-09-15T19:29:22.852Z,4.60
2022-09-15T19:30:54.659Z,9.27
2022-09-15T19:32:26.692Z,6.40
2022-09-15T19:33:58.417Z,6.40
2022-09-15T19:35:30.080Z,3.13
2022-09-15T19:37:01.832Z,3.73
2022-09-15T19:38:35.575Z,5.60
2022-09-15T19:40:09.738Z,5.80
2022-09-15T19:41:41.928Z,4.83
2022-09-15T19:43:13.609Z,5.90
2022-09-15T19:44:45.855Z,8.83
2022-09-15T19:46:20.386Z,7.87
2022-09-15T19:47:52.206Z,5.37
2022-09-15T19:49:24.113Z,5.17
2022-09-15T19:50:55.968Z,4.87
2022-09-15T19:52:28.326Z,10.33
2022-09-15T19:54:00.283Z,9.30
2022-09-15T19:55:34.126Z,12.30
2022-09-15T19:57:05.791Z,5.50
2022-09-15T19:58:37.446Z,7.13
2022-09-15T20:00:11.699Z,7.93
2022-09-15T20:01:43.441Z,4.90
2022-09-15T20:03:15.088Z,5.17
2022-09-15T20:04:47.560Z,6.93
2022-09-15T20:06:19.190Z,8.90
2022-09-15T20:07:50.903Z,2.03
2022-09-15T20:09:22.632Z,3.60
2022-09-15T20:10:54.328Z,5.20
2022-09-15T20:12:26.613Z,1.90
2022-09-15T20:14:00.201Z,2.90
2022-09-15T20:15:31.872Z,8.43
2022-09-15T20:17:04.032Z,3.77
2022-09-15T20:18:39.209Z,4.30
2022-09-15T20:20:11.705Z,8.67
2022-09-15T20:21:50.306Z,4.90
2022-09-15T20:23:23.040Z,4.87
2022-09-15T20:24:55.999Z,6.07
2022-09-15T20:26:29.189Z,4.90
2022-09-15T20:28:00.840Z,4.50
2022-09-15T20:29:32.514Z,4.00
2022-09-15T20:31:10.883Z,5.90
2022-09-15T20:32:42.561Z,7.47
2022-09-15T20:34:14.595Z,9.63
2022-09-15T20:35:46.199Z,9.23
2022-09-15T20:37:17.933Z,3.40
2022-09-15T20:38:50.701Z,2.40
2022-09-15T20:40:22.396Z,8.33
2022-09-15T20:41:54.310Z,12.73
2022-09-15T20:43:26.685Z,11.00
2022-09-15T20:44:58.309Z,7.00
2022-09-15T20:46:31.208Z,7.30
2022-09-15T20:48:03.422Z,2.57
2022-09-15T20:49:35.030Z,3.67
2022-09-15T20:51:22.571Z,3.33
2022-09-15T20:52:54.197Z,8.20
2022-09-15T20:54:25.822Z,4.57
2022-09-15T20:55:57.750Z,2.80
2022-09-15T20:57:29.392Z,4.20
2022-09-15T20:59:01.262Z,4.13
2022-09-15T21:00:34.029Z,2.80
2022-09-15T21:02:06.980Z,7.30
2022-09-15T21:03:40.243Z,2.03
2022-09-15T21:05:11.897Z,11.60
2022-09-15T21:06:43.648Z,8.53
2022-09-15T21:08:15.365Z,2.80
2022-09-15T21:09:46.960Z,3.13
2022-09-15T21:11:20.141Z,5.10
2022-09-15T21:12:51.772Z,2.83